sensor_id;sensor_type;location;lat;lon;timestamp;temperature;humidity
5086;DHT22;4715;51.660;7.082;2023-03-16T00:01:34;5.20;99.90
5086;DHT22;4715;51.660;7.082;2023-03-16T00:03:56;5.20;99.90
5086;DHT22;4715;51.660;7.082;2023-03-16T00:06:19;5.10;99.90
5086;DHT22;4715;51.660;7.082;2023-03-16T00:08:40;5.10;99.90
5086;DHT22;4715;51.660;7.082;2023-03-16T00:11:02;5.10;99.90
5086;DHT22;4715;51.660;7.082;2023-03-16T00:13:24;5.10;99.90
5086;DHT22;4715;51.660;7.082;2023-03-16T00:15:49;5.10;99.90
5086;DHT22;4715;51.660;7.082;2023-03-16T00:18:11;5.10;99.90
5086;DHT22;4715;51.660;7.082;2023-03-16T00:20:34;5.10;99.90
5086;DHT22;4715;51.660;7.082;2023-03-16T00:22:57;5.10;99.90
5086;DHT22;4715;51.660;7.082;2023-03-16T00:25:20;5.10;99.90
5086;DHT22;4715;51.660;7.082;2023-03-16T00:27:43;5.10;99.90
5086;DHT22;4715;51.660;7.082;2023-03-16T00:30:06;5.00;99.90
5086;DHT22;4715;51.660;7.082;2023-03-16T00:32:30;5.00;99.90
5086;DHT22;4715;51.660;7.082;2023-03-16T00:34:53;5.00;99.90
5086;DHT22;4715;51.660;7.082;2023-03-16T00:37:16;5.00;99.90
5086;DHT22;4715;51.660;7.082;2023-03-16T00:39:40;5.00;99.90
5086;DHT22;4715;51.660;7.082;2023-03-16T00:42:02;5.00;99.90
5086;DHT22;4715;51.660;7.082;2023-03-16T00:44:27;4.90;99.90
5086;DHT22;4715;51.660;7.082;2023-03-16T00:46:49;4.90;99.90
5086;DHT22;4715;51.660;7.082;2023-03-16T00:49:11;4.90;99.90
5086;DHT22;4715;51.660;7.082;2023-03-16T00:51:32;4.90;99.90
5086;DHT22;4715;51.660;7.082;2023-03-16T00:53:57;4.90;99.90
5086;DHT22;4715;51.660;7.082;2023-03-16T00:56:21;4.90;99.90
5086;DHT22;4715;51.660;7.082;2023-03-16T00:58:43;4.90;99.90
5086;DHT22;4715;51.660;7.082;2023-03-16T01:01:07;4.90;99.90
5086;DHT22;4715;51.660;7.082;2023-03-16T01:03:29;4.90;99.90
5086;DHT22;4715;51.660;7.082;2023-03-16T01:05:51;4.90;99.90
5086;DHT22;4715;51.660;7.082;2023-03-16T01:08:13;4.90;99.90
5086;DHT22;4715;51.660;7.082;2023-03-16T01:10:35;4.90;99.90
5086;DHT22;4715;51.660;7.082;2023-03-16T01:12:59;4.90;99.90
5086;DHT22;4715;51.660;7.082;2023-03-16T01:15:22;4.90;99.90
5086;DHT22;4715;51.660;7.082;2023-03-16T01:17:44;4.90;99.90
5086;DHT22;4715;51.660;7.082;2023-03-16T01:20:07;4.90;99.90
5086;DHT22;4715;51.660;7.082;2023-03-16T01:22:31;4.90;99.90
5086;DHT22;4715;51.660;7.082;2023-03-16T01:24:53;4.90;99.90
5086;DHT22;4715;51.660;7.082;2023-03-16T01:27:15;4.80;99.90
5086;DHT22;4715;51.660;7.082;2023-03-16T01:29:39;4.80;99.90
5086;DHT22;4715;51.660;7.082;2023-03-16T01:32:03;4.80;99.90
5086;DHT22;4715;51.660;7.082;2023-03-16T01:34:26;4.80;99.90
5086;DHT22;4715;51.660;7.082;2023-03-16T01:36:49;4.70;99.90
5086;DHT22;4715;51.660;7.082;2023-03-16T01:39:11;4.70;99.90
5086;DHT22;4715;51.660;7.082;2023-03-16T01:41:32;4.70;99.90
5086;DHT22;4715;51.660;7.082;2023-03-16T01:43:54;4.80;99.90
5086;DHT22;4715;51.660;7.082;2023-03-16T01:46:21;4.80;99.90
5086;DHT22;4715;51.660;7.082;2023-03-16T01:48:48;4.80;99.90
5086;DHT22;4715;51.660;7.082;2023-03-16T01:51:16;4.80;99.90
5086;DHT22;4715;51.660;7.082;2023-03-16T01:53:43;4.90;99.90
5086;DHT22;4715;51.660;7.082;2023-03-16T01:56:08;4.80;99.90
5086;DHT22;4715;51.660;7.082;2023-03-16T01:58:30;4.90;99.90
5086;DHT22;4715;51.660;7.082;2023-03-16T02:00:52;4.90;99.90
5086;DHT22;4715;51.660;7.082;2023-03-16T02:03:17;4.90;99.90
5086;DHT22;4715;51.660;7.082;2023-03-16T02:05:43;5.00;99.90
5086;DHT22;4715;51.660;7.082;2023-03-16T02:08:07;4.90;99.90
5086;DHT22;4715;51.660;7.082;2023-03-16T02:10:30;5.00;99.90
5086;DHT22;4715;51.660;7.082;2023-03-16T02:12:53;4.90;99.90
5086;DHT22;4715;51.660;7.082;2023-03-16T02:15:15;4.90;99.90
5086;DHT22;4715;51.660;7.082;2023-03-16T02:17:37;4.90;99.90
5086;DHT22;4715;51.660;7.082;2023-03-16T02:20:07;4.90;99.90
5086;DHT22;4715;51.660;7.082;2023-03-16T02:22:33;4.90;99.90
5086;DHT22;4715;51.660;7.082;2023-03-16T02:24:55;4.90;99.90
5086;DHT22;4715;51.660;7.082;2023-03-16T02:27:24;4.90;99.90
5086;DHT22;4715;51.660;7.082;2023-03-16T02:30:04;4.90;99.90
5086;DHT22;4715;51.660;7.082;2023-03-16T02:32:28;4.90;99.90
5086;DHT22;4715;51.660;7.082;2023-03-16T02:34:51;4.80;99.90
5086;DHT22;4715;51.660;7.082;2023-03-16T02:37:13;4.80;99.90
5086;DHT22;4715;51.660;7.082;2023-03-16T02:39:35;4.80;99.90
5086;DHT22;4715;51.660;7.082;2023-03-16T02:41:57;4.80;99.90
5086;DHT22;4715;51.660;7.082;2023-03-16T02:44:22;4.80;99.90
5086;DHT22;4715;51.660;7.082;2023-03-16T02:46:47;4.80;99.90
5086;DHT22;4715;51.660;7.082;2023-03-16T02:49:14;4.80;99.90
5086;DHT22;4715;51.660;7.082;2023-03-16T02:51:37;4.80;99.90
5086;DHT22;4715;51.660;7.082;2023-03-16T02:53:59;4.80;99.90
5086;DHT22;4715;51.660;7.082;2023-03-16T02:56:21;4.80;99.90
5086;DHT22;4715;51.660;7.082;2023-03-16T02:58:43;4.80;99.90
5086;DHT22;4715;51.660;7.082;2023-03-16T03:01:05;4.80;99.90
5086;DHT22;4715;51.660;7.082;2023-03-16T03:03:28;4.80;99.90
5086;DHT22;4715;51.660;7.082;2023-03-16T03:05:50;4.90;99.90
5086;DHT22;4715;51.660;7.082;2023-03-16T03:08:12;4.80;99.90
5086;DHT22;4715;51.660;7.082;2023-03-16T03:10:34;4.90;99.90
5086;DHT22;4715;51.660;7.082;2023-03-16T03:12:56;4.90;99.90
5086;DHT22;4715;51.660;7.082;2023-03-16T03:15:18;4.90;99.90
5086;DHT22;4715;51.660;7.082;2023-03-16T03:17:41;4.90;99.90
5086;DHT22;4715;51.660;7.082;2023-03-16T03:20:05;4.90;99.90
5086;DHT22;4715;51.660;7.082;2023-03-16T03:22:33;4.90;99.90
5086;DHT22;4715;51.660;7.082;2023-03-16T03:24:54;4.90;99.90
5086;DHT22;4715;51.660;7.082;2023-03-16T03:27:17;4.90;99.90
5086;DHT22;4715;51.660;7.082;2023-03-16T03:29:39;4.90;99.90
5086;DHT22;4715;51.660;7.082;2023-03-16T03:32:01;4.90;99.90
5086;DHT22;4715;51.660;7.082;2023-03-16T03:34:23;4.90;99.90
5086;DHT22;4715;51.660;7.082;2023-03-16T03:36:47;4.90;99.90
5086;DHT22;4715;51.660;7.082;2023-03-16T03:39:09;4.90;99.90
5086;DHT22;4715;51.660;7.082;2023-03-16T03:41:31;5.00;99.90
5086;DHT22;4715;51.660;7.082;2023-03-16T03:43:52;5.00;99.90
5086;DHT22;4715;51.660;7.082;2023-03-16T03:46:14;5.00;99.90
5086;DHT22;4715;51.660;7.082;2023-03-16T03:48:36;5.00;99.90
5086;DHT22;4715;51.660;7.082;2023-03-16T03:50:58;5.00;99.90
5086;DHT22;4715;51.660;7.082;2023-03-16T03:53:21;5.00;99.90
5086;DHT22;4715;51.660;7.082;2023-03-16T03:55:43;5.00;99.90
5086;DHT22;4715;51.660;7.082;2023-03-16T03:58:05;5.00;99.90
5086;DHT22;4715;51.660;7.082;2023-03-16T04:00:27;5.00;99.90
5086;DHT22;4715;51.660;7.082;2023-03-16T04:02:49;5.00;99.90
5086;DHT22;4715;51.660;7.082;2023-03-16T04:05:11;5.00;99.90
5086;DHT22;4715;51.660;7.082;2023-03-16T04:07:32;5.00;99.90
5086;DHT22;4715;51.660;7.082;2023-03-16T04:09:56;5.00;99.90
5086;DHT22;4715;51.660;7.082;2023-03-16T04:12:17;5.00;99.90
5086;DHT22;4715;51.660;7.082;2023-03-16T04:14:39;5.00;99.90
5086;DHT22;4715;51.660;7.082;2023-03-16T04:17:01;5.00;99.90
5086;DHT22;4715;51.660;7.082;2023-03-16T04:19:24;5.00;99.90
5086;DHT22;4715;51.660;7.082;2023-03-16T04:21:46;5.00;99.90
5086;DHT22;4715;51.660;7.082;2023-03-16T04:24:08;5.00;99.90
5086;DHT22;4715;51.660;7.082;2023-03-16T04:26:31;5.00;99.90
5086;DHT22;4715;51.660;7.082;2023-03-16T04:28:53;5.00;99.90
5086;DHT22;4715;51.660;7.082;2023-03-16T04:31:15;5.00;99.90
5086;DHT22;4715;51.660;7.082;2023-03-16T04:33:38;5.00;99.90
5086;DHT22;4715;51.660;7.082;2023-03-16T04:36:02;5.00;99.90
5086;DHT22;4715;51.660;7.082;2023-03-16T04:38:24;5.00;99.90
5086;DHT22;4715;51.660;7.082;2023-03-16T04:40:45;5.00;99.90
5086;DHT22;4715;51.660;7.082;2023-03-16T04:43:09;5.00;99.90
5086;DHT22;4715;51.660;7.082;2023-03-16T04:45:31;5.00;99.90
5086;DHT22;4715;51.660;7.082;2023-03-16T04:47:53;5.00;99.90
5086;DHT22;4715;51.660;7.082;2023-03-16T04:50:16;5.00;99.90
5086;DHT22;4715;51.660;7.082;2023-03-16T04:52:38;4.90;99.90
5086;DHT22;4715;51.660;7.082;2023-03-16T04:55:00;5.00;99.90
5086;DHT22;4715;51.660;7.082;2023-03-16T04:57:22;4.90;99.90
5086;DHT22;4715;51.660;7.082;2023-03-16T04:59:46;5.00;99.90
5086;DHT22;4715;51.660;7.082;2023-03-16T05:02:07;4.90;99.90
5086;DHT22;4715;51.660;7.082;2023-03-16T05:04:30;4.90;99.90
5086;DHT22;4715;51.660;7.082;2023-03-16T05:06:53;5.00;99.90
5086;DHT22;4715;51.660;7.082;2023-03-16T05:09:15;5.00;99.90
5086;DHT22;4715;51.660;7.082;2023-03-16T05:11:37;5.00;99.90
5086;DHT22;4715;51.660;7.082;2023-03-16T05:13:59;5.00;99.90
5086;DHT22;4715;51.660;7.082;2023-03-16T05:16:23;5.00;99.90
5086;DHT22;4715;51.660;7.082;2023-03-16T05:18:44;5.00;99.90
5086;DHT22;4715;51.660;7.082;2023-03-16T05:21:06;5.00;99.90
5086;DHT22;4715;51.660;7.082;2023-03-16T05:23:28;5.00;99.90
5086;DHT22;4715;51.660;7.082;2023-03-16T05:25:50;5.00;99.90
5086;DHT22;4715;51.660;7.082;2023-03-16T05:28:11;5.00;99.90
5086;DHT22;4715;51.660;7.082;2023-03-16T05:30:34;5.10;99.90
5086;DHT22;4715;51.660;7.082;2023-03-16T05:32:58;5.10;99.90
5086;DHT22;4715;51.660;7.082;2023-03-16T05:35:20;5.10;99.90
5086;DHT22;4715;51.660;7.082;2023-03-16T05:37:42;5.20;99.90
5086;DHT22;4715;51.660;7.082;2023-03-16T05:40:05;5.20;99.90
5086;DHT22;4715;51.660;7.082;2023-03-16T05:42:33;5.20;99.90
5086;DHT22;4715;51.660;7.082;2023-03-16T05:44:55;5.20;99.90
5086;DHT22;4715;51.660;7.082;2023-03-16T05:47:17;5.20;99.90
5086;DHT22;4715;51.660;7.082;2023-03-16T05:49:40;5.20;99.90
5086;DHT22;4715;51.660;7.082;2023-03-16T05:52:02;5.30;99.90
5086;DHT22;4715;51.660;7.082;2023-03-16T05:54:24;5.30;99.90
5086;DHT22;4715;51.660;7.082;2023-03-16T05:56:45;5.30;99.90
5086;DHT22;4715;51.660;7.082;2023-03-16T05:59:07;5.30;99.90
5086;DHT22;4715;51.660;7.082;2023-03-16T06:01:29;5.30;99.90
5086;DHT22;4715;51.660;7.082;2023-03-16T06:03:53;5.40;99.90
5086;DHT22;4715;51.660;7.082;2023-03-16T06:06:17;5.40;99.90
5086;DHT22;4715;51.660;7.082;2023-03-16T06:08:39;5.40;99.90
5086;DHT22;4715;51.660;7.082;2023-03-16T06:11:01;5.40;99.90
5086;DHT22;4715;51.660;7.082;2023-03-16T06:13:23;5.40;99.90
5086;DHT22;4715;51.660;7.082;2023-03-16T06:15:45;5.40;99.90
5086;DHT22;4715;51.660;7.082;2023-03-16T06:18:07;5.50;99.90
5086;DHT22;4715;51.660;7.082;2023-03-16T06:20:28;5.50;99.90
5086;DHT22;4715;51.660;7.082;2023-03-16T06:22:52;5.50;99.90
5086;DHT22;4715;51.660;7.082;2023-03-16T06:25:14;5.50;99.90
5086;DHT22;4715;51.660;7.082;2023-03-16T06:27:36;5.50;99.90
5086;DHT22;4715;51.660;7.082;2023-03-16T06:29:59;5.50;99.90
5086;DHT22;4715;51.660;7.082;2023-03-16T06:32:21;5.50;99.90
5086;DHT22;4715;51.660;7.082;2023-03-16T06:34:43;5.50;99.90
5086;DHT22;4715;51.660;7.082;2023-03-16T06:37:05;5.50;99.90
5086;DHT22;4715;51.660;7.082;2023-03-16T06:39:28;5.50;99.90
5086;DHT22;4715;51.660;7.082;2023-03-16T06:41:52;5.60;99.90
5086;DHT22;4715;51.660;7.082;2023-03-16T06:44:13;5.60;99.90
5086;DHT22;4715;51.660;7.082;2023-03-16T06:46:36;5.60;99.90
5086;DHT22;4715;51.660;7.082;2023-03-16T06:48:58;5.60;99.90
5086;DHT22;4715;51.660;7.082;2023-03-16T06:51:20;5.70;99.90
5086;DHT22;4715;51.660;7.082;2023-03-16T06:53:43;5.70;99.90
5086;DHT22;4715;51.660;7.082;2023-03-16T06:56:06;5.80;99.90
5086;DHT22;4715;51.660;7.082;2023-03-16T06:58:28;5.80;99.90
5086;DHT22;4715;51.660;7.082;2023-03-16T07:00:50;5.80;99.90
5086;DHT22;4715;51.660;7.082;2023-03-16T07:03:13;5.90;99.90
5086;DHT22;4715;51.660;7.082;2023-03-16T07:05:35;6.00;99.90
5086;DHT22;4715;51.660;7.082;2023-03-16T07:07:57;6.00;99.90
5086;DHT22;4715;51.660;7.082;2023-03-16T07:10:19;6.00;99.90
5086;DHT22;4715;51.660;7.082;2023-03-16T07:12:43;6.00;99.90
5086;DHT22;4715;51.660;7.082;2023-03-16T07:15:05;6.00;99.90
5086;DHT22;4715;51.660;7.082;2023-03-16T07:17:27;6.10;99.90
5086;DHT22;4715;51.660;7.082;2023-03-16T07:19:49;6.10;99.90
5086;DHT22;4715;51.660;7.082;2023-03-16T07:22:11;6.10;99.90
5086;DHT22;4715;51.660;7.082;2023-03-16T07:24:34;6.10;99.90
5086;DHT22;4715;51.660;7.082;2023-03-16T07:26:55;6.20;99.90
5086;DHT22;4715;51.660;7.082;2023-03-16T07:29:18;6.20;99.90
5086;DHT22;4715;51.660;7.082;2023-03-16T07:31:41;6.30;99.90
5086;DHT22;4715;51.660;7.082;2023-03-16T07:34:04;6.30;99.90
5086;DHT22;4715;51.660;7.082;2023-03-16T07:36:25;6.30;99.90
5086;DHT22;4715;51.660;7.082;2023-03-16T07:38:47;6.40;99.90
5086;DHT22;4715;51.660;7.082;2023-03-16T07:41:10;6.50;99.90
5086;DHT22;4715;51.660;7.082;2023-03-16T07:43:33;6.60;99.90
5086;DHT22;4715;51.660;7.082;2023-03-16T07:45:57;6.80;99.90
5086;DHT22;4715;51.660;7.082;2023-03-16T07:48:19;6.90;99.90
5086;DHT22;4715;51.660;7.082;2023-03-16T07:50:41;7.00;99.90
5086;DHT22;4715;51.660;7.082;2023-03-16T07:53:03;7.10;99.90
5086;DHT22;4715;51.660;7.082;2023-03-16T07:55:25;7.10;99.90
5086;DHT22;4715;51.660;7.082;2023-03-16T07:57:47;7.10;99.90
5086;DHT22;4715;51.660;7.082;2023-03-16T08:00:10;7.10;99.90
5086;DHT22;4715;51.660;7.082;2023-03-16T08:02:35;7.10;99.90
5086;DHT22;4715;51.660;7.082;2023-03-16T08:04:56;7.20;99.90
5086;DHT22;4715;51.660;7.082;2023-03-16T08:07:18;7.20;99.90
5086;DHT22;4715;51.660;7.082;2023-03-16T08:09:40;7.30;99.90
5086;DHT22;4715;51.660;7.082;2023-03-16T08:12:02;7.30;99.90
5086;DHT22;4715;51.660;7.082;2023-03-16T08:14:25;7.30;99.90
5086;DHT22;4715;51.660;7.082;2023-03-16T08:16:47;7.40;99.90
5086;DHT22;4715;51.660;7.082;2023-03-16T08:19:10;7.40;99.90
5086;DHT22;4715;51.660;7.082;2023-03-16T08:21:32;7.50;99.90
5086;DHT22;4715;51.660;7.082;2023-03-16T08:23:55;7.50;99.90
5086;DHT22;4715;51.660;7.082;2023-03-16T08:26:18;7.50;99.90
5086;DHT22;4715;51.660;7.082;2023-03-16T08:28:40;7.50;99.90
5086;DHT22;4715;51.660;7.082;2023-03-16T08:31:01;7.50;99.90
5086;DHT22;4715;51.660;7.082;2023-03-16T08:33:23;7.60;99.90
5086;DHT22;4715;51.660;7.082;2023-03-16T08:35:46;7.60;99.90
5086;DHT22;4715;51.660;7.082;2023-03-16T08:38:09;7.60;99.90
5086;DHT22;4715;51.660;7.082;2023-03-16T08:40:31;7.60;99.90
5086;DHT22;4715;51.660;7.082;2023-03-16T08:42:54;7.70;99.90
5086;DHT22;4715;51.660;7.082;2023-03-16T08:45:16;7.70;99.90
5086;DHT22;4715;51.660;7.082;2023-03-16T08:47:39;7.80;99.90
5086;DHT22;4715;51.660;7.082;2023-03-16T08:50:02;7.80;99.90
5086;DHT22;4715;51.660;7.082;2023-03-16T08:52:26;7.90;99.90
5086;DHT22;4715;51.660;7.082;2023-03-16T08:54:49;7.90;99.90
5086;DHT22;4715;51.660;7.082;2023-03-16T08:57:11;7.90;99.90
5086;DHT22;4715;51.660;7.082;2023-03-16T08:59:33;7.80;99.90
5086;DHT22;4715;51.660;7.082;2023-03-16T09:01:56;7.80;99.90
5086;DHT22;4715;51.660;7.082;2023-03-16T09:04:18;7.80;99.90
5086;DHT22;4715;51.660;7.082;2023-03-16T09:06:40;7.70;99.90
5086;DHT22;4715;51.660;7.082;2023-03-16T09:09:04;7.70;99.90
5086;DHT22;4715;51.660;7.082;2023-03-16T09:11:26;7.70;99.90
5086;DHT22;4715;51.660;7.082;2023-03-16T09:13:50;7.70;99.90
5086;DHT22;4715;51.660;7.082;2023-03-16T09:16:13;7.70;99.90
5086;DHT22;4715;51.660;7.082;2023-03-16T09:18:36;7.70;99.90
5086;DHT22;4715;51.660;7.082;2023-03-16T09:20:58;7.70;99.90
5086;DHT22;4715;51.660;7.082;2023-03-16T09:23:21;7.70;99.90
5086;DHT22;4715;51.660;7.082;2023-03-16T09:25:44;7.70;99.90
5086;DHT22;4715;51.660;7.082;2023-03-16T09:28:07;7.60;99.90
5086;DHT22;4715;51.660;7.082;2023-03-16T09:30:30;7.60;99.90
5086;DHT22;4715;51.660;7.082;2023-03-16T09:32:53;7.70;99.90
5086;DHT22;4715;51.660;7.082;2023-03-16T09:35:15;7.70;99.90
5086;DHT22;4715;51.660;7.082;2023-03-16T09:37:37;7.70;99.90
5086;DHT22;4715;51.660;7.082;2023-03-16T09:39:59;7.70;99.90
5086;DHT22;4715;51.660;7.082;2023-03-16T09:42:27;7.80;99.90
5086;DHT22;4715;51.660;7.082;2023-03-16T09:44:58;7.90;99.90
5086;DHT22;4715;51.660;7.082;2023-03-16T09:47:27;8.00;99.90
5086;DHT22;4715;51.660;7.082;2023-03-16T09:49:50;8.10;99.90
5086;DHT22;4715;51.660;7.082;2023-03-16T09:52:22;8.10;99.90
5086;DHT22;4715;51.660;7.082;2023-03-16T09:54:50;8.20;99.90
5086;DHT22;4715;51.660;7.082;2023-03-16T09:57:26;8.20;99.90
5086;DHT22;4715;51.660;7.082;2023-03-16T09:59:48;8.30;99.90
5086;DHT22;4715;51.660;7.082;2023-03-16T10:02:30;8.20;99.90
5086;DHT22;4715;51.660;7.082;2023-03-16T10:05:04;8.30;99.90
5086;DHT22;4715;51.660;7.082;2023-03-16T10:07:36;8.30;99.90
5086;DHT22;4715;51.660;7.082;2023-03-16T10:10:14;8.30;99.90
5086;DHT22;4715;51.660;7.082;2023-03-16T10:12:44;8.30;99.90
5086;DHT22;4715;51.660;7.082;2023-03-16T10:15:09;8.30;99.90
5086;DHT22;4715;51.660;7.082;2023-03-16T10:17:37;8.40;99.90
5086;DHT22;4715;51.660;7.082;2023-03-16T10:20:02;8.40;99.90
5086;DHT22;4715;51.660;7.082;2023-03-16T10:22:30;8.40;99.90
5086;DHT22;4715;51.660;7.082;2023-03-16T10:25:03;8.40;99.90
5086;DHT22;4715;51.660;7.082;2023-03-16T10:27:30;8.50;99.90
5086;DHT22;4715;51.660;7.082;2023-03-16T10:29:54;8.50;99.90
5086;DHT22;4715;51.660;7.082;2023-03-16T10:32:17;8.50;99.90
5086;DHT22;4715;51.660;7.082;2023-03-16T10:34:39;8.40;99.90
5086;DHT22;4715;51.660;7.082;2023-03-16T10:37:03;8.40;99.90
5086;DHT22;4715;51.660;7.082;2023-03-16T10:39:34;8.40;99.90
5086;DHT22;4715;51.660;7.082;2023-03-16T10:41:57;8.40;99.90
5086;DHT22;4715;51.660;7.082;2023-03-16T10:44:23;8.50;99.90
5086;DHT22;4715;51.660;7.082;2023-03-16T10:46:48;8.50;99.90
5086;DHT22;4715;51.660;7.082;2023-03-16T10:49:24;8.50;99.90
5086;DHT22;4715;51.660;7.082;2023-03-16T10:51:47;8.50;99.90
5086;DHT22;4715;51.660;7.082;2023-03-16T10:54:15;8.50;99.90
5086;DHT22;4715;51.660;7.082;2023-03-16T10:56:37;8.60;99.90
5086;DHT22;4715;51.660;7.082;2023-03-16T10:58:59;8.70;99.90
5086;DHT22;4715;51.660;7.082;2023-03-16T11:01:24;8.70;99.90
5086;DHT22;4715;51.660;7.082;2023-03-16T11:03:50;8.80;99.90
5086;DHT22;4715;51.660;7.082;2023-03-16T11:06:18;8.90;99.90
5086;DHT22;4715;51.660;7.082;2023-03-16T11:08:42;8.90;99.90
5086;DHT22;4715;51.660;7.082;2023-03-16T11:11:08;8.90;99.90
5086;DHT22;4715;51.660;7.082;2023-03-16T11:13:34;9.00;99.90
5086;DHT22;4715;51.660;7.082;2023-03-16T11:16:00;9.00;99.90
5086;DHT22;4715;51.660;7.082;2023-03-16T11:18:29;9.00;99.90
5086;DHT22;4715;51.660;7.082;2023-03-16T11:20:53;9.10;99.90
5086;DHT22;4715;51.660;7.082;2023-03-16T11:23:17;9.10;99.90
5086;DHT22;4715;51.660;7.082;2023-03-16T11:25:44;9.20;99.90
5086;DHT22;4715;51.660;7.082;2023-03-16T11:28:12;9.30;99.90
5086;DHT22;4715;51.660;7.082;2023-03-16T11:30:38;9.40;99.90
5086;DHT22;4715;51.660;7.082;2023-03-16T11:33:01;9.40;99.90
5086;DHT22;4715;51.660;7.082;2023-03-16T11:35:30;9.60;99.90
5086;DHT22;4715;51.660;7.082;2023-03-16T11:38:07;9.80;99.90
5086;DHT22;4715;51.660;7.082;2023-03-16T11:40:37;10.00;99.90
5086;DHT22;4715;51.660;7.082;2023-03-16T11:43:08;10.10;99.90
5086;DHT22;4715;51.660;7.082;2023-03-16T11:45:38;10.20;99.90
5086;DHT22;4715;51.660;7.082;2023-03-16T11:48:31;10.30;99.90
5086;DHT22;4715;51.660;7.082;2023-03-16T11:51:03;10.50;99.90
5086;DHT22;4715;51.660;7.082;2023-03-16T11:53:39;10.60;99.90
5086;DHT22;4715;51.660;7.082;2023-03-16T11:56:11;10.60;99.90
5086;DHT22;4715;51.660;7.082;2023-03-16T11:58:48;10.70;99.90
5086;DHT22;4715;51.660;7.082;2023-03-16T12:01:17;10.80;99.90
5086;DHT22;4715;51.660;7.082;2023-03-16T12:04:06;10.90;99.90
5086;DHT22;4715;51.660;7.082;2023-03-16T12:06:44;11.10;99.90
5086;DHT22;4715;51.660;7.082;2023-03-16T12:12:19;11.60;99.90
5086;DHT22;4715;51.660;7.082;2023-03-16T12:14:46;11.90;99.90
5086;DHT22;4715;51.660;7.082;2023-03-16T12:17:13;12.10;99.90
5086;DHT22;4715;51.660;7.082;2023-03-16T12:19:40;12.10;99.90
5086;DHT22;4715;51.660;7.082;2023-03-16T12:22:11;12.20;99.90
5086;DHT22;4715;51.660;7.082;2023-03-16T12:24:39;12.20;99.90
5086;DHT22;4715;51.660;7.082;2023-03-16T12:27:03;12.20;99.90
5086;DHT22;4715;51.660;7.082;2023-03-16T12:29:31;12.20;99.90
5086;DHT22;4715;51.660;7.082;2023-03-16T12:32:00;12.20;99.90
5086;DHT22;4715;51.660;7.082;2023-03-16T12:34:27;12.20;99.90
5086;DHT22;4715;51.660;7.082;2023-03-16T12:37:01;12.20;99.90
5086;DHT22;4715;51.660;7.082;2023-03-16T12:39:40;12.00;99.90
5086;DHT22;4715;51.660;7.082;2023-03-16T12:42:20;11.90;99.90
5086;DHT22;4715;51.660;7.082;2023-03-16T12:44:51;11.90;99.90
5086;DHT22;4715;51.660;7.082;2023-03-16T12:47:20;11.80;99.90
5086;DHT22;4715;51.660;7.082;2023-03-16T12:49:46;11.70;99.90
5086;DHT22;4715;51.660;7.082;2023-03-16T12:52:12;11.70;99.90
5086;DHT22;4715;51.660;7.082;2023-03-16T12:54:34;11.60;99.90
5086;DHT22;4715;51.660;7.082;2023-03-16T12:57:04;11.60;99.90
5086;DHT22;4715;51.660;7.082;2023-03-16T12:59:36;11.60;99.90
5086;DHT22;4715;51.660;7.082;2023-03-16T13:02:01;11.60;99.90
5086;DHT22;4715;51.660;7.082;2023-03-16T13:04:30;11.70;99.90
5086;DHT22;4715;51.660;7.082;2023-03-16T13:07:01;11.70;99.90
5086;DHT22;4715;51.660;7.082;2023-03-16T13:09:26;11.70;99.90
5086;DHT22;4715;51.660;7.082;2023-03-16T13:11:51;11.80;99.90
5086;DHT22;4715;51.660;7.082;2023-03-16T13:14:34;11.80;99.90
5086;DHT22;4715;51.660;7.082;2023-03-16T13:17:03;11.90;99.90
5086;DHT22;4715;51.660;7.082;2023-03-16T13:19:28;11.90;99.90
5086;DHT22;4715;51.660;7.082;2023-03-16T13:22:04;11.90;99.90
5086;DHT22;4715;51.660;7.082;2023-03-16T13:24:37;12.10;99.90
5086;DHT22;4715;51.660;7.082;2023-03-16T13:27:02;12.10;99.90
5086;DHT22;4715;51.660;7.082;2023-03-16T13:29:28;12.30;99.90
5086;DHT22;4715;51.660;7.082;2023-03-16T13:31:51;12.30;99.90
5086;DHT22;4715;51.660;7.082;2023-03-16T13:34:18;12.50;99.90
5086;DHT22;4715;51.660;7.082;2023-03-16T13:36:40;12.60;99.90
5086;DHT22;4715;51.660;7.082;2023-03-16T13:39:13;12.80;99.90
5086;DHT22;4715;51.660;7.082;2023-03-16T13:41:35;13.10;99.90
5086;DHT22;4715;51.660;7.082;2023-03-16T13:43:58;13.30;99.90
5086;DHT22;4715;51.660;7.082;2023-03-16T13:46:27;13.40;99.90
5086;DHT22;4715;51.660;7.082;2023-03-16T13:48:49;13.60;99.90
5086;DHT22;4715;51.660;7.082;2023-03-16T13:51:13;13.70;99.90
5086;DHT22;4715;51.660;7.082;2023-03-16T13:53:39;13.90;99.90
5086;DHT22;4715;51.660;7.082;2023-03-16T13:56:02;14.00;99.90
5086;DHT22;4715;51.660;7.082;2023-03-16T13:58:29;14.10;99.90
5086;DHT22;4715;51.660;7.082;2023-03-16T14:00:58;14.30;99.90
5086;DHT22;4715;51.660;7.082;2023-03-16T14:03:28;14.40;99.60
5086;DHT22;4715;51.660;7.082;2023-03-16T14:05:52;14.50;99.50
5086;DHT22;4715;51.660;7.082;2023-03-16T14:08:19;14.70;99.60
5086;DHT22;4715;51.660;7.082;2023-03-16T14:10:42;15.00;99.40
5086;DHT22;4715;51.660;7.082;2023-03-16T14:13:21;15.10;99.30
5086;DHT22;4715;51.660;7.082;2023-03-16T14:15:44;15.10;98.40
5086;DHT22;4715;51.660;7.082;2023-03-16T14:18:12;15.10;98.70
5086;DHT22;4715;51.660;7.082;2023-03-16T14:20:38;15.40;99.00
5086;DHT22;4715;51.660;7.082;2023-03-16T14:23:00;15.70;98.80
5086;DHT22;4715;51.660;7.082;2023-03-16T14:25:24;15.90;98.50
5086;DHT22;4715;51.660;7.082;2023-03-16T14:27:55;15.80;97.60
5086;DHT22;4715;51.660;7.082;2023-03-16T14:30:19;15.60;97.30
5086;DHT22;4715;51.660;7.082;2023-03-16T14:32:56;15.30;97.00
5086;DHT22;4715;51.660;7.082;2023-03-16T14:35:20;15.00;96.90
5086;DHT22;4715;51.660;7.082;2023-03-16T14:37:44;14.90;97.30
5086;DHT22;4715;51.660;7.082;2023-03-16T14:40:25;14.90;97.50
5086;DHT22;4715;51.660;7.082;2023-03-16T14:42:48;15.10;97.80
5086;DHT22;4715;51.660;7.082;2023-03-16T14:45:12;15.30;98.00
5086;DHT22;4715;51.660;7.082;2023-03-16T14:47:40;15.70;97.70
5086;DHT22;4715;51.660;7.082;2023-03-16T14:50:06;15.80;97.10
5086;DHT22;4715;51.660;7.082;2023-03-16T14:52:30;15.80;96.60
5086;DHT22;4715;51.660;7.082;2023-03-16T14:54:53;15.80;96.70
5086;DHT22;4715;51.660;7.082;2023-03-16T14:57:16;16.00;96.70
5086;DHT22;4715;51.660;7.082;2023-03-16T14:59:38;16.20;95.70
5086;DHT22;4715;51.660;7.082;2023-03-16T15:02:01;16.40;95.80
5086;DHT22;4715;51.660;7.082;2023-03-16T15:04:26;16.50;95.60
5086;DHT22;4715;51.660;7.082;2023-03-16T15:06:51;16.70;95.30
5086;DHT22;4715;51.660;7.082;2023-03-16T15:09:25;16.90;95.20
5086;DHT22;4715;51.660;7.082;2023-03-16T15:11:50;17.00;94.90
5086;DHT22;4715;51.660;7.082;2023-03-16T15:14:15;17.00;94.70
5086;DHT22;4715;51.660;7.082;2023-03-16T15:16:56;17.20;94.80
5086;DHT22;4715;51.660;7.082;2023-03-16T15:19:18;17.40;94.60
5086;DHT22;4715;51.660;7.082;2023-03-16T15:21:40;17.70;94.50
5086;DHT22;4715;51.660;7.082;2023-03-16T15:24:02;17.80;94.10
5086;DHT22;4715;51.660;7.082;2023-03-16T15:26:25;18.00;93.30
5086;DHT22;4715;51.660;7.082;2023-03-16T15:28:49;17.80;93.10
5086;DHT22;4715;51.660;7.082;2023-03-16T15:31:12;17.70;93.00
5086;DHT22;4715;51.660;7.082;2023-03-16T15:33:34;17.70;92.30
5086;DHT22;4715;51.660;7.082;2023-03-16T15:35:57;17.70;92.60
5086;DHT22;4715;51.660;7.082;2023-03-16T15:38:22;17.80;92.60
5086;DHT22;4715;51.660;7.082;2023-03-16T15:40:45;17.90;92.60
5086;DHT22;4715;51.660;7.082;2023-03-16T15:43:09;18.00;92.80
5086;DHT22;4715;51.660;7.082;2023-03-16T15:45:33;18.00;92.30
5086;DHT22;4715;51.660;7.082;2023-03-16T15:47:55;18.00;92.30
5086;DHT22;4715;51.660;7.082;2023-03-16T15:50:20;18.10;92.40
5086;DHT22;4715;51.660;7.082;2023-03-16T15:52:45;18.20;92.50
5086;DHT22;4715;51.660;7.082;2023-03-16T15:55:15;18.30;92.40
5086;DHT22;4715;51.660;7.082;2023-03-16T15:57:38;18.40;92.10
5086;DHT22;4715;51.660;7.082;2023-03-16T16:00:01;18.40;92.00